Terminal Aerodrome Forecast
Issued by NWS

Home | Current Version | Previous Version | Text Only | Print | Product List | Glossary On
Versions: 1 2 3 4 5 6 7 8 9 10 11 12
512
FTUS43 KABR 182332
TAFPIR
TAF
KPIR 182332Z 1900/1924 14005KT P6SM SKC
     FM190800 15004KT 2SM BR SKC
     FM191500 16004KT 6SM BR SKC=

USA.gov is the U.S. government's official web portal to all federal, state and local government web resources and services.